createdAt,value
2023-01-11T00:00:28.258Z,5.44
2023-01-11T00:02:56.752Z,5.51
2023-01-11T00:05:23.453Z,5.47
2023-01-11T00:07:49.966Z,5.52
2023-01-11T00:10:16.741Z,5.56
2023-01-11T00:12:43.182Z,5.61
2023-01-11T00:15:10.400Z,5.59
2023-01-11T00:17:36.960Z,5.60
2023-01-11T00:20:03.818Z,5.54
2023-01-11T00:22:30.268Z,5.51
2023-01-11T00:24:56.772Z,5.61
2023-01-11T00:27:23.154Z,5.64
2023-01-11T00:29:49.567Z,5.65
2023-01-11T00:32:16.023Z,5.67
2023-01-11T00:34:42.531Z,5.72
2023-01-11T00:37:10.602Z,5.70
2023-01-11T00:39:37.034Z,5.73
2023-01-11T00:42:21.960Z,5.74
2023-01-11T00:45:07.000Z,5.71
2023-01-11T00:47:52.064Z,5.72
2023-01-11T00:50:18.623Z,5.69
2023-01-11T00:52:45.034Z,5.72
2023-01-11T00:55:11.433Z,5.70
2023-01-11T00:57:37.840Z,5.64
2023-01-11T01:00:06.022Z,5.67
2023-01-11T01:02:32.851Z,5.69
2023-01-11T01:04:59.703Z,5.67
2023-01-11T01:07:26.264Z,5.65
2023-01-11T01:09:52.677Z,5.65
2023-01-11T01:12:37.644Z,5.62
2023-01-11T01:15:04.469Z,5.63
2023-01-11T01:17:31.016Z,5.63
2023-01-11T01:19:57.424Z,5.63
2023-01-11T01:22:23.875Z,5.62
2023-01-11T01:24:50.400Z,5.63
2023-01-11T01:27:17.824Z,5.61
2023-01-11T01:29:44.465Z,5.64
2023-01-11T01:32:10.959Z,5.65
2023-01-11T01:34:37.582Z,5.67
2023-01-11T01:37:05.738Z,5.64
2023-01-11T01:39:32.331Z,5.65
2023-01-11T01:41:59.309Z,5.64
2023-01-11T01:44:52.744Z,5.64
2023-01-11T01:47:26.203Z,5.61
2023-01-11T01:49:53.080Z,5.64
2023-01-11T01:52:19.578Z,5.68
2023-01-11T01:54:49.244Z,5.69
2023-01-11T01:57:24.832Z,5.64
2023-01-11T01:59:52.794Z,5.63
2023-01-11T02:02:24.023Z,5.61
2023-01-11T02:04:52.945Z,5.66
2023-01-11T02:07:22.635Z,5.65
2023-01-11T02:10:04.650Z,5.59
2023-01-11T02:12:57.022Z,5.58
2023-01-11T02:15:23.980Z,5.60
2023-01-11T02:17:51.002Z,5.63
2023-01-11T02:20:23.648Z,5.66
2023-01-11T02:23:27.655Z,5.70
2023-01-11T02:26:20.339Z,5.67
2023-01-11T02:29:30.008Z,5.67
2023-01-11T02:32:17.795Z,5.64
2023-01-11T02:35:06.956Z,5.66
2023-01-11T02:38:05.204Z,5.70
2023-01-11T02:40:59.711Z,5.63
2023-01-11T02:43:50.755Z,5.67
2023-01-11T02:46:32.820Z,5.66
2023-01-11T02:49:09.357Z,5.66
2023-01-11T02:51:42.760Z,5.63
2023-01-11T02:54:11.606Z,5.60
2023-01-11T02:56:44.569Z,5.55
2023-01-11T02:59:15.542Z,5.55
2023-01-11T03:01:51.561Z,5.53
2023-01-11T03:04:25.657Z,5.50
2023-01-11T03:06:59.320Z,5.56
2023-01-11T03:09:35.041Z,5.63
2023-01-11T03:12:32.401Z,5.65
2023-01-11T03:15:17.436Z,5.72
2023-01-11T03:18:05.222Z,5.69
2023-01-11T03:20:47.269Z,5.71
2023-01-11T03:23:55.350Z,5.71
2023-01-11T03:26:49.634Z,5.71
2023-01-11T03:29:34.264Z,5.72
2023-01-11T03:32:25.953Z,5.75
2023-01-11T03:34:58.335Z,5.74
2023-01-11T03:37:35.949Z,5.74
2023-01-11T03:40:17.095Z,5.74
2023-01-11T03:43:05.553Z,5.79
2023-01-11T03:45:36.564Z,5.86
2023-01-11T03:48:06.863Z,5.89
2023-01-11T03:50:34.190Z,5.88
2023-01-11T03:53:05.434Z,5.93
2023-01-11T03:55:36.960Z,5.91
2023-01-11T03:58:03.597Z,5.90
2023-01-11T04:00:31.270Z,5.93
2023-01-11T04:03:00.172Z,5.90
2023-01-11T04:05:26.755Z,5.92
2023-01-11T04:07:54.243Z,5.90
2023-01-11T04:10:20.664Z,5.88
2023-01-11T04:12:48.253Z,5.86
2023-01-11T04:15:16.032Z,5.86
2023-01-11T04:17:42.988Z,5.85
2023-01-11T04:20:10.410Z,5.83
2023-01-11T04:22:36.884Z,5.79
2023-01-11T04:25:04.533Z,5.80
2023-01-11T04:27:31.023Z,5.81
2023-01-11T04:29:57.458Z,5.80
2023-01-11T04:32:24.525Z,5.79
2023-01-11T04:34:50.963Z,5.80
2023-01-11T04:37:17.472Z,5.79
2023-01-11T04:39:43.937Z,5.81
2023-01-11T04:42:18.370Z,5.85
2023-01-11T04:44:48.162Z,5.85
2023-01-11T04:47:16.210Z,5.85
2023-01-11T04:49:43.078Z,5.86
2023-01-11T04:52:11.479Z,5.89
2023-01-11T04:54:38.655Z,5.85
2023-01-11T04:57:06.033Z,5.90
2023-01-11T04:59:32.885Z,5.93
2023-01-11T05:01:59.336Z,5.96
2023-01-11T05:04:25.794Z,5.89
2023-01-11T05:06:52.549Z,5.95
2023-01-11T05:09:19.082Z,5.93
2023-01-11T05:11:45.933Z,5.96
2023-01-11T05:14:12.884Z,5.96
2023-01-11T05:16:39.496Z,5.94
2023-01-11T05:19:06.376Z,5.90
2023-01-11T05:21:35.805Z,5.97
2023-01-11T05:24:06.211Z,5.92
2023-01-11T05:26:35.096Z,5.97
2023-01-11T05:29:05.210Z,5.98
2023-01-11T05:31:33.151Z,5.97
2023-01-11T05:33:59.907Z,6.00
2023-01-11T05:36:28.163Z,6.03
2023-01-11T05:38:56.359Z,6.01
2023-01-11T05:41:25.701Z,6.06
2023-01-11T05:44:11.970Z,6.09
2023-01-11T05:46:40.479Z,6.14
2023-01-11T05:49:08.089Z,6.18
2023-01-11T05:51:35.245Z,6.17
2023-01-11T05:54:03.848Z,6.19
2023-01-11T05:56:30.747Z,6.19
2023-01-11T05:58:57.618Z,6.18
2023-01-11T06:01:25.766Z,6.19
2023-01-11T06:03:52.719Z,6.21
2023-01-11T06:06:20.359Z,6.22
2023-01-11T06:08:47.393Z,6.21
2023-01-11T06:11:15.330Z,6.22
2023-01-11T06:13:42.600Z,6.32
2023-01-11T06:16:12.311Z,6.34
2023-01-11T06:18:41.838Z,6.47
2023-01-11T06:21:09.547Z,6.49
2023-01-11T06:23:38.602Z,6.55
2023-01-11T06:26:11.113Z,6.55
2023-01-11T06:28:38.282Z,6.54
2023-01-11T06:31:06.549Z,6.57
2023-01-11T06:33:33.491Z,6.65
2023-01-11T06:36:03.942Z,6.73
2023-01-11T06:38:30.468Z,6.68
2023-01-11T06:41:00.536Z,6.73
2023-01-11T06:43:28.352Z,6.73
2023-01-11T06:45:55.615Z,6.62
2023-01-11T06:48:23.609Z,6.59
2023-01-11T06:50:52.259Z,6.56
2023-01-11T06:53:19.710Z,6.52
2023-01-11T06:55:50.532Z,6.51
2023-01-11T06:58:17.162Z,6.51
2023-01-11T07:00:43.838Z,6.51
2023-01-11T07:03:11.483Z,6.54
2023-01-11T07:05:38.093Z,6.57
2023-01-11T07:08:05.149Z,6.60
2023-01-11T07:10:31.771Z,6.61
2023-01-11T07:12:58.222Z,6.64
2023-01-11T07:15:24.909Z,6.66
2023-01-11T07:17:56.446Z,6.67
2023-01-11T07:20:24.627Z,6.71
2023-01-11T07:22:51.724Z,6.73
2023-01-11T07:25:18.720Z,6.75
2023-01-11T07:27:45.489Z,6.81
2023-01-11T07:30:12.436Z,6.85
2023-01-11T07:32:39.535Z,6.86
2023-01-11T07:35:07.176Z,6.87
2023-01-11T07:37:36.904Z,6.84
2023-01-11T07:40:03.750Z,6.93
2023-01-11T07:42:48.987Z,6.95
2023-01-11T07:45:15.727Z,6.96
2023-01-11T07:47:42.196Z,6.98
2023-01-11T07:50:09.191Z,7.02
2023-01-11T07:52:35.683Z,7.05
2023-01-11T07:55:02.816Z,7.04
2023-01-11T07:57:30.549Z,7.06
2023-01-11T07:59:57.197Z,7.08
2023-01-11T08:02:24.162Z,7.11
2023-01-11T08:04:50.856Z,7.10
2023-01-11T08:07:17.426Z,7.17
2023-01-11T08:09:43.992Z,7.17
2023-01-11T08:12:29.418Z,7.18
2023-01-11T08:14:55.878Z,7.26
2023-01-11T08:17:22.497Z,7.31
2023-01-11T08:19:49.040Z,7.33
2023-01-11T08:22:15.610Z,7.37
2023-01-11T08:24:42.244Z,7.46
2023-01-11T08:27:08.888Z,7.47
2023-01-11T08:29:35.570Z,7.50
2023-01-11T08:32:02.490Z,7.51
2023-01-11T08:34:29.167Z,7.51
2023-01-11T08:36:57.514Z,7.57
2023-01-11T08:39:24.621Z,7.56
2023-01-11T08:41:51.188Z,7.59
2023-01-11T08:44:29.113Z,7.59
2023-01-11T08:46:59.467Z,7.58
2023-01-11T08:49:25.955Z,7.59
2023-01-11T08:51:52.562Z,7.60
2023-01-11T08:54:19.021Z,7.65
2023-01-11T08:56:45.499Z,7.66
2023-01-11T08:59:12.156Z,7.69
2023-01-11T09:01:38.710Z,7.70
2023-01-11T09:04:19.160Z,7.70
2023-01-11T09:06:49.875Z,7.74
2023-01-11T09:09:17.025Z,7.77
2023-01-11T09:12:09.911Z,7.79
2023-01-11T09:14:36.516Z,7.84
2023-01-11T09:17:03.008Z,7.87
2023-01-11T09:19:29.527Z,7.89
2023-01-11T09:21:57.799Z,7.90
2023-01-11T09:24:24.309Z,7.99
2023-01-11T09:26:50.860Z,8.02
2023-01-11T09:29:17.961Z,8.03
2023-01-11T09:31:44.586Z,8.07
2023-01-11T09:34:12.712Z,8.07
2023-01-11T09:36:40.301Z,8.12
2023-01-11T09:39:11.779Z,8.16
2023-01-11T09:42:07.402Z,8.15
2023-01-11T09:44:36.728Z,8.17
2023-01-11T09:47:32.832Z,8.21
2023-01-11T09:50:04.552Z,8.23
2023-01-11T09:52:38.383Z,8.23
2023-01-11T09:55:06.105Z,8.26
2023-01-11T09:57:54.904Z,8.29
2023-01-11T10:00:37.367Z,8.33
2023-01-11T10:03:13.297Z,8.32
2023-01-11T10:06:09.124Z,8.35
2023-01-11T10:18:28.852Z,8.40
2023-01-11T10:19:24.837Z,8.42
2023-01-11T10:21:53.368Z,8.50
2023-01-11T10:24:30.674Z,8.54
2023-01-11T10:27:17.637Z,8.58
2023-01-11T10:29:47.839Z,8.61
2023-01-11T10:32:40.055Z,8.64
2023-01-11T10:35:33.965Z,8.67
2023-01-11T10:38:30.807Z,8.65
2023-01-11T10:41:15.632Z,8.72
2023-01-11T10:43:46.501Z,8.78
2023-01-11T10:46:26.510Z,8.75
2023-01-11T10:49:35.803Z,8.70
2023-01-11T10:52:38.971Z,8.65
2023-01-11T10:55:14.411Z,8.57
2023-01-11T10:58:03.574Z,8.54
2023-01-11T11:00:41.498Z,8.48
2023-01-11T11:03:10.748Z,8.46
2023-01-11T11:06:05.042Z,8.45
2023-01-11T11:08:49.594Z,8.44
2023-01-11T11:11:24.295Z,8.45
2023-01-11T11:13:56.838Z,8.46
2023-01-11T11:16:23.279Z,8.48
2023-01-11T11:18:58.435Z,8.50
2023-01-11T11:21:38.745Z,8.52
2023-01-11T11:24:13.517Z,8.50
2023-01-11T11:26:45.409Z,8.55
2023-01-11T11:29:22.808Z,8.54
2023-01-11T11:31:50.744Z,8.54
2023-01-11T11:34:20.712Z,8.54
2023-01-11T11:36:50.219Z,8.60
2023-01-11T11:39:22.063Z,8.58
2023-01-11T11:41:54.018Z,8.60
2023-01-11T11:44:24.382Z,8.56
2023-01-11T11:47:14.861Z,8.59
2023-01-11T11:49:42.209Z,8.63
2023-01-11T11:52:17.585Z,8.58
2023-01-11T11:54:56.917Z,8.60
2023-01-11T11:57:31.115Z,8.69
2023-01-11T12:00:09.026Z,8.66
2023-01-11T12:02:42.035Z,8.70
2023-01-11T12:05:10.565Z,8.69
2023-01-11T12:07:54.209Z,8.74
2023-01-11T12:10:24.179Z,8.73
2023-01-11T12:12:59.326Z,8.73
2023-01-11T12:15:30.739Z,8.71
2023-01-11T12:18:26.552Z,8.69
2023-01-11T12:20:53.821Z,8.69
2023-01-11T12:23:25.382Z,8.71
2023-01-11T12:26:21.345Z,8.71
2023-01-11T12:29:06.767Z,8.67
2023-01-11T12:31:39.025Z,8.65
2023-01-11T12:34:11.597Z,8.61
2023-01-11T12:37:04.180Z,8.61
2023-01-11T12:39:36.439Z,8.61
2023-01-11T12:42:40.595Z,8.63
2023-01-11T12:45:15.328Z,8.62
2023-01-11T12:47:50.527Z,8.62
2023-01-11T12:50:20.488Z,8.66
2023-01-11T12:53:24.691Z,8.76
2023-01-11T12:56:25.121Z,8.72
2023-01-11T12:59:07.093Z,8.77
2023-01-11T13:01:38.100Z,8.80
2023-01-11T13:04:12.461Z,8.84
2023-01-11T13:07:19.558Z,8.86
2023-01-11T13:10:25.406Z,8.83
2023-01-11T13:13:05.721Z,8.84
2023-01-11T13:16:00.987Z,8.87
2023-01-11T13:18:35.663Z,8.86
2023-01-11T13:21:19.351Z,8.85
2023-01-11T13:23:54.621Z,8.84
2023-01-11T13:26:26.942Z,8.85
2023-01-11T13:29:00.646Z,8.85
2023-01-11T13:31:27.693Z,8.90
2023-01-11T13:34:01.070Z,8.90
2023-01-11T13:36:38.512Z,8.93
2023-01-11T13:39:28.490Z,8.90
2023-01-11T13:41:59.061Z,8.91
2023-01-11T13:44:36.382Z,8.86
2023-01-11T13:47:17.197Z,8.86
2023-01-11T13:50:10.688Z,8.94
2023-01-11T13:52:44.154Z,8.91
2023-01-11T13:55:27.047Z,8.87
2023-01-11T13:58:02.698Z,8.87
2023-01-11T14:00:47.574Z,8.85
2023-01-11T14:03:22.646Z,8.90
2023-01-11T14:09:28.420Z,8.90
2023-01-11T14:11:54.775Z,8.87
2023-01-11T14:14:39.663Z,8.90
2023-01-11T14:17:13.363Z,8.92
2023-01-11T14:20:01.528Z,8.89
2023-01-11T14:22:58.851Z,8.91
2023-01-11T14:25:38.758Z,8.93
2023-01-11T14:28:27.214Z,8.91
2023-01-11T14:31:15.329Z,8.89
2023-01-11T14:34:02.936Z,8.84
2023-01-11T14:36:48.202Z,8.79
2023-01-11T14:39:52.284Z,8.82
2023-01-11T14:42:49.937Z,8.86
2023-01-11T14:45:41.313Z,8.83
2023-01-11T14:48:30.401Z,8.82
2023-01-11T14:51:34.322Z,8.80
2023-01-11T14:54:06.932Z,8.92
2023-01-11T14:56:42.230Z,8.88
2023-01-11T14:59:27.385Z,8.89
2023-01-11T15:02:03.028Z,8.82
2023-01-11T15:04:35.361Z,8.78
2023-01-11T15:07:29.719Z,8.83
2023-01-11T15:09:58.387Z,8.77
2023-01-11T15:12:45.039Z,8.76
2023-01-11T15:15:11.405Z,8.78
2023-01-11T15:17:57.026Z,8.74
2023-01-11T15:20:27.802Z,8.75
2023-01-11T15:23:00.295Z,8.78
2023-01-11T15:25:29.707Z,8.84
2023-01-11T15:27:56.556Z,8.84
2023-01-11T15:30:29.212Z,8.80
2023-01-11T15:33:17.704Z,8.78
2023-01-11T15:35:56.447Z,8.80
2023-01-11T15:38:42.433Z,8.81
2023-01-11T15:41:35.760Z,8.77
2023-01-11T15:44:56.606Z,8.78
2023-01-11T15:47:40.909Z,8.76
2023-01-11T15:50:07.327Z,8.72
2023-01-11T15:53:12.365Z,8.78
2023-01-11T15:56:02.241Z,8.71
2023-01-11T15:58:50.253Z,8.74
2023-01-11T16:01:29.617Z,8.81
2023-01-11T16:04:28.507Z,8.78
2023-01-11T16:06:58.728Z,8.74
2023-01-11T16:09:50.219Z,8.77
2023-01-11T16:12:47.589Z,8.83
2023-01-11T16:15:38.205Z,8.84
2023-01-11T16:18:13.615Z,8.82
2023-01-11T16:20:44.020Z,8.80
2023-01-11T16:23:19.691Z,8.85
2023-01-11T16:25:49.850Z,8.82
2023-01-11T16:28:19.533Z,8.82
2023-01-11T16:30:46.927Z,8.84
2023-01-11T16:33:26.472Z,8.84
2023-01-11T16:36:11.418Z,8.82
2023-01-11T16:38:45.959Z,8.81
2023-01-11T16:41:15.172Z,8.84
2023-01-11T16:43:59.211Z,8.86
2023-01-11T16:46:46.950Z,8.95
2023-01-11T16:49:17.680Z,8.97
2023-01-11T16:51:45.356Z,8.97
2023-01-11T16:54:26.173Z,8.92
2023-01-11T16:56:53.872Z,8.91
2023-01-11T16:59:27.749Z,8.88
2023-01-11T17:01:57.043Z,8.84
2023-01-11T17:04:37.180Z,8.80
2023-01-11T17:07:20.105Z,8.76
2023-01-11T17:09:46.504Z,8.73
2023-01-11T17:12:21.907Z,8.68
2023-01-11T17:15:23.745Z,8.70
2023-01-11T17:17:50.773Z,8.71
2023-01-11T17:20:20.929Z,8.68
2023-01-11T17:22:50.674Z,8.67
2023-01-11T17:25:29.540Z,8.59
2023-01-11T17:28:02.770Z,8.58
2023-01-11T17:30:30.152Z,8.58
2023-01-11T17:32:59.530Z,8.60
2023-01-11T17:35:28.994Z,8.58
2023-01-11T17:37:58.969Z,8.60
2023-01-11T17:40:30.067Z,8.58
2023-01-11T17:43:38.905Z,8.62
2023-01-11T17:46:06.577Z,8.54
2023-01-11T17:48:33.943Z,8.49
2023-01-11T17:51:03.115Z,8.46
2023-01-11T17:53:37.464Z,8.38
2023-01-11T17:56:27.544Z,8.33
2023-01-11T17:59:15.820Z,8.25
2023-01-11T18:01:50.297Z,8.20
2023-01-11T18:04:19.930Z,8.19
2023-01-11T18:06:50.760Z,8.13
2023-01-11T18:09:24.547Z,8.12
2023-01-11T18:11:52.985Z,8.10
2023-01-11T18:14:29.925Z,8.02
2023-01-11T18:17:02.710Z,7.97
2023-01-11T18:19:34.666Z,7.94
2023-01-11T18:22:01.384Z,7.89
2023-01-11T18:24:33.854Z,7.82
2023-01-11T18:27:15.707Z,7.83
2023-01-11T18:29:47.434Z,7.76
2023-01-11T18:32:15.089Z,7.77
2023-01-11T18:34:44.116Z,7.76
2023-01-11T18:37:10.891Z,7.82
2023-01-11T18:39:37.733Z,7.84
2023-01-11T18:42:08.035Z,7.89
2023-01-11T18:44:39.048Z,7.90
2023-01-11T18:47:28.436Z,7.94
2023-01-11T18:49:55.177Z,8.01
2023-01-11T18:52:27.641Z,8.05
2023-01-11T18:54:55.748Z,8.04
2023-01-11T18:57:23.510Z,8.12
2023-01-11T18:59:52.346Z,8.09
2023-01-11T19:02:33.280Z,8.12
2023-01-11T19:04:59.774Z,8.08
2023-01-11T19:07:26.838Z,8.07
2023-01-11T19:09:54.917Z,8.07
2023-01-11T19:12:23.550Z,8.08
2023-01-11T19:14:49.978Z,8.10
2023-01-11T19:17:16.825Z,8.07
2023-01-11T19:19:43.480Z,8.11
2023-01-11T19:22:11.257Z,8.08
2023-01-11T19:24:38.035Z,8.11
2023-01-11T19:27:04.553Z,8.09
2023-01-11T19:29:32.599Z,8.03
2023-01-11T19:31:59.103Z,8.04
2023-01-11T19:34:25.565Z,8.04
2023-01-11T19:36:52.522Z,8.04
2023-01-11T19:39:19.001Z,8.03
2023-01-11T19:41:54.818Z,8.04
2023-01-11T19:44:22.102Z,7.90
2023-01-11T19:46:56.702Z,7.95
2023-01-11T19:49:27.842Z,7.90
2023-01-11T19:52:00.343Z,7.86
2023-01-11T19:54:28.375Z,7.86
2023-01-11T19:56:55.591Z,7.81
2023-01-11T19:59:22.117Z,7.82
2023-01-11T20:01:48.989Z,7.75
2023-01-11T20:04:17.001Z,7.70
2023-01-11T20:06:50.381Z,7.71
2023-01-11T20:09:18.824Z,7.72
2023-01-11T20:11:46.272Z,7.75
2023-01-11T20:14:12.719Z,7.68
2023-01-11T20:16:39.228Z,7.70
2023-01-11T20:19:05.663Z,7.66
2023-01-11T20:21:34.114Z,7.64
2023-01-11T20:24:01.818Z,7.60
2023-01-11T20:26:30.771Z,7.61
2023-01-11T20:28:59.075Z,7.54
2023-01-11T20:31:31.624Z,7.55
2023-01-11T20:34:00.005Z,7.52
2023-01-11T20:36:27.115Z,7.48
2023-01-11T20:38:55.071Z,7.52
2023-01-11T20:41:43.432Z,7.48
2023-01-11T20:44:10.528Z,7.39
2023-01-11T20:46:37.509Z,7.43
2023-01-11T20:49:05.412Z,7.42
2023-01-11T20:51:31.966Z,7.45
2023-01-11T20:53:58.494Z,7.44
2023-01-11T20:56:24.950Z,7.46
2023-01-11T20:58:52.106Z,7.47
2023-01-11T21:01:23.433Z,7.56
2023-01-11T21:03:49.875Z,7.61
2023-01-11T21:06:16.337Z,7.68
2023-01-11T21:08:42.938Z,7.71
2023-01-11T21:11:12.855Z,7.72
2023-01-11T21:13:40.277Z,7.69
2023-01-11T21:16:15.353Z,7.69
2023-01-11T21:18:45.998Z,7.63
2023-01-11T21:21:13.824Z,7.48
2023-01-11T21:23:40.595Z,7.48
2023-01-11T21:26:11.877Z,7.36
2023-01-11T21:28:39.409Z,7.32
2023-01-11T21:31:10.689Z,7.43
2023-01-11T21:33:39.178Z,7.40
2023-01-11T21:36:10.307Z,7.37
2023-01-11T21:38:37.268Z,7.40
2023-01-11T21:41:09.234Z,7.45
2023-01-11T21:43:36.467Z,7.41
2023-01-11T21:46:04.834Z,7.43
2023-01-11T21:48:31.933Z,7.45
2023-01-11T21:50:59.251Z,7.46
2023-01-11T21:53:32.530Z,7.39
2023-01-11T21:56:07.556Z,7.45
2023-01-11T21:58:35.478Z,7.39
2023-01-11T22:01:11.741Z,7.40
2023-01-11T22:03:38.295Z,7.36
2023-01-11T22:06:05.151Z,7.28
2023-01-11T22:08:35.089Z,7.30
2023-01-11T22:11:03.727Z,7.20
2023-01-11T22:13:31.186Z,7.12
2023-01-11T22:16:04.601Z,7.07
2023-01-11T22:18:33.647Z,6.94
2023-01-11T22:21:27.493Z,6.83
2023-01-11T22:23:55.242Z,6.76
2023-01-11T22:29:17.254Z,6.64
2023-01-11T22:31:52.636Z,6.58
2023-01-11T22:34:19.471Z,6.42
2023-01-11T22:36:46.777Z,6.45
2023-01-11T22:39:14.834Z,6.46
2023-01-11T22:41:42.202Z,6.57
2023-01-11T22:44:09.380Z,6.58
2023-01-11T22:46:35.867Z,6.62
2023-01-11T22:49:04.099Z,6.64
2023-01-11T22:51:31.060Z,6.59
2023-01-11T22:53:58.291Z,6.58
2023-01-11T22:56:26.797Z,6.58
2023-01-11T22:58:53.971Z,6.53
2023-01-11T23:01:26.118Z,6.45
2023-01-11T23:03:54.014Z,6.40
2023-01-11T23:06:29.421Z,6.36
2023-01-11T23:08:56.488Z,6.29
2023-01-11T23:11:48.436Z,6.36
2023-01-11T23:14:17.691Z,6.35
2023-01-11T23:16:45.417Z,6.39
2023-01-11T23:19:16.480Z,6.36
2023-01-11T23:21:44.927Z,6.32
2023-01-11T23:24:13.410Z,6.30
2023-01-11T23:26:40.087Z,6.28
2023-01-11T23:29:06.618Z,6.33
2023-01-11T23:31:34.275Z,6.37
2023-01-11T23:34:02.093Z,6.36
2023-01-11T23:36:31.642Z,6.35
2023-01-11T23:38:58.729Z,6.42
2023-01-11T23:41:43.890Z,6.36
2023-01-11T23:44:12.822Z,6.31
2023-01-11T23:46:58.762Z,6.21
2023-01-11T23:49:25.855Z,6.13
2023-01-11T23:51:56.170Z,6.04
2023-01-11T23:54:25.619Z,5.89
2023-01-11T23:56:52.062Z,5.78
2023-01-11T23:59:18.512Z,5.66
